createdAt,value
2019-02-19T00:00:36.886Z,8.60
2019-02-19T00:03:03.315Z,9.00
2019-02-19T00:05:29.158Z,9.03
2019-02-19T00:07:54.972Z,8.60
2019-02-19T00:10:20.821Z,7.87
2019-02-19T00:12:46.661Z,8.57
2019-02-19T00:15:12.811Z,8.47
2019-02-19T00:17:38.638Z,8.80
2019-02-19T00:20:04.463Z,8.47
2019-02-19T00:22:30.304Z,8.40
2019-02-19T00:24:56.130Z,8.90
2019-02-19T00:27:21.988Z,8.50
2019-02-19T00:29:47.913Z,8.20
2019-02-19T00:32:13.769Z,8.97
2019-02-19T00:34:39.590Z,8.93
2019-02-19T00:37:05.436Z,8.27
2019-02-19T00:39:31.263Z,9.13
2019-02-19T00:41:57.117Z,8.43
2019-02-19T00:44:23.035Z,8.23
2019-02-19T00:46:48.894Z,8.30
2019-02-19T00:49:14.729Z,8.10
2019-02-19T00:51:40.572Z,7.90
2019-02-19T00:54:06.498Z,8.00
2019-02-19T00:56:32.325Z,7.63
2019-02-19T00:58:58.280Z,7.53
2019-02-19T01:01:24.101Z,8.10
2019-02-19T01:03:49.939Z,8.30
2019-02-19T01:06:16.253Z,7.90
2019-02-19T01:08:42.092Z,8.50
2019-02-19T01:11:08.017Z,7.77
2019-02-19T01:13:33.867Z,8.27
2019-02-19T01:15:59.787Z,7.63
2019-02-19T01:18:25.654Z,8.13
2019-02-19T01:20:51.484Z,8.60
2019-02-19T01:23:17.328Z,8.30
2019-02-19T01:25:43.159Z,8.07
2019-02-19T01:28:09.020Z,8.43
2019-02-19T01:30:34.844Z,7.63
2019-02-19T01:33:00.690Z,8.17
2019-02-19T01:35:26.512Z,8.00
2019-02-19T01:37:52.365Z,8.20
2019-02-19T01:40:18.205Z,8.57
2019-02-19T01:42:44.022Z,8.50
2019-02-19T01:45:09.869Z,8.00
2019-02-19T01:47:35.681Z,8.27
2019-02-19T01:50:03.325Z,8.13
2019-02-19T01:52:29.161Z,8.20
2019-02-19T01:54:55.023Z,8.67
2019-02-19T01:57:20.841Z,8.23
2019-02-19T01:59:46.696Z,8.23
2019-02-19T02:02:12.506Z,8.33
2019-02-19T02:04:38.342Z,8.10
2019-02-19T02:07:04.618Z,8.00
2019-02-19T02:09:30.691Z,8.77
2019-02-19T02:11:56.508Z,8.60
2019-02-19T02:14:22.351Z,8.13
2019-02-19T02:16:48.171Z,8.40
2019-02-19T02:19:14.024Z,8.37
2019-02-19T02:21:39.883Z,8.43
2019-02-19T02:24:05.696Z,8.73
2019-02-19T02:26:31.560Z,8.87
2019-02-19T02:28:57.698Z,8.93
2019-02-19T02:31:23.542Z,9.27
2019-02-19T02:33:49.345Z,8.53
2019-02-19T02:36:15.302Z,8.80
2019-02-19T02:38:41.131Z,8.20
2019-02-19T02:41:07.003Z,8.57
2019-02-19T02:43:32.824Z,9.13
2019-02-19T02:45:58.670Z,8.87
2019-02-19T02:48:24.500Z,9.20
2019-02-19T02:50:50.324Z,10.23
2019-02-19T02:53:16.143Z,11.37
2019-02-19T02:55:42.119Z,12.27
2019-02-19T02:58:07.938Z,11.27
2019-02-19T03:00:33.853Z,11.83
2019-02-19T03:02:59.702Z,12.37
2019-02-19T03:05:25.536Z,12.10
2019-02-19T03:07:53.280Z,11.90
2019-02-19T03:10:19.102Z,11.50
2019-02-19T03:12:44.945Z,12.93
2019-02-19T03:15:11.358Z,13.47
2019-02-19T03:17:37.198Z,13.33
2019-02-19T03:20:05.155Z,14.27
2019-02-19T03:22:30.986Z,14.57
2019-02-19T03:24:56.812Z,14.43
2019-02-19T03:27:22.665Z,15.00
2019-02-19T03:29:48.475Z,14.47
2019-02-19T03:32:14.329Z,14.57
2019-02-19T03:34:40.142Z,16.20
2019-02-19T03:37:06.052Z,14.73
2019-02-19T03:39:31.850Z,15.70
2019-02-19T03:41:57.669Z,17.70
2019-02-19T03:44:23.505Z,17.87
2019-02-19T03:46:49.317Z,16.93
2019-02-19T03:49:15.167Z,17.30
2019-02-19T03:51:41.002Z,17.33
2019-02-19T03:54:06.940Z,17.20
2019-02-19T03:56:32.768Z,18.27
2019-02-19T03:58:58.733Z,17.07
2019-02-19T04:01:24.606Z,17.37
2019-02-19T04:03:50.639Z,17.27
2019-02-19T04:06:16.533Z,17.20
2019-02-19T04:08:42.388Z,17.27
2019-02-19T04:11:08.222Z,16.37
2019-02-19T04:13:34.160Z,16.80
2019-02-19T04:16:00.008Z,17.57
2019-02-19T04:18:25.822Z,18.00
2019-02-19T04:20:51.726Z,16.67
2019-02-19T04:23:17.537Z,18.27
2019-02-19T04:25:43.380Z,17.93
2019-02-19T04:28:09.195Z,19.00
2019-02-19T04:30:35.044Z,20.47
2019-02-19T04:33:00.862Z,18.13
2019-02-19T04:35:26.695Z,18.23
2019-02-19T04:37:52.515Z,19.73
2019-02-19T04:40:18.362Z,19.60
2019-02-19T04:42:44.285Z,19.53
2019-02-19T04:45:10.222Z,19.93
2019-02-19T04:47:36.048Z,17.70
2019-02-19T04:50:03.873Z,19.13
2019-02-19T04:52:29.752Z,19.80
2019-02-19T04:54:55.590Z,19.70
2019-02-19T04:57:21.726Z,18.60
2019-02-19T04:59:47.572Z,19.00
2019-02-19T05:02:13.416Z,19.33
2019-02-19T05:04:39.264Z,18.10
2019-02-19T05:07:05.099Z,18.47
2019-02-19T05:09:30.923Z,19.17
2019-02-19T05:11:56.771Z,18.70
2019-02-19T05:14:22.594Z,18.40
2019-02-19T05:16:48.454Z,18.77
2019-02-19T05:19:14.317Z,17.50
2019-02-19T05:21:40.172Z,18.47
2019-02-19T05:24:05.996Z,18.20
2019-02-19T05:26:31.846Z,18.30
2019-02-19T05:28:57.661Z,18.47
2019-02-19T05:31:23.509Z,18.23
2019-02-19T05:33:49.358Z,18.47
2019-02-19T05:36:15.202Z,18.63
2019-02-19T05:38:41.032Z,20.73
2019-02-19T05:41:06.864Z,19.17
2019-02-19T05:43:32.684Z,19.57
2019-02-19T05:45:58.507Z,20.30
2019-02-19T05:48:24.362Z,21.87
2019-02-19T05:50:50.179Z,22.00
2019-02-19T05:53:16.048Z,22.23
2019-02-19T05:55:41.871Z,21.50
2019-02-19T05:58:07.714Z,23.13
2019-02-19T06:00:33.637Z,22.40
2019-02-19T06:03:01.377Z,24.00
2019-02-19T06:05:27.201Z,23.10
2019-02-19T06:07:53.038Z,22.93
2019-02-19T06:10:19.657Z,23.07
2019-02-19T06:12:45.501Z,23.07
2019-02-19T06:15:11.620Z,22.43
2019-02-19T06:17:37.518Z,22.87
2019-02-19T06:20:19.580Z,22.97
2019-02-19T06:22:38.229Z,21.87
2019-02-19T06:25:06.577Z,21.23
2019-02-19T06:27:32.406Z,21.87
2019-02-19T06:29:58.283Z,22.00
2019-02-19T06:32:24.142Z,21.60
2019-02-19T06:34:49.978Z,21.17
2019-02-19T06:37:15.940Z,20.00
2019-02-19T06:39:41.781Z,20.33
2019-02-19T06:42:07.625Z,17.93
2019-02-19T06:44:33.475Z,19.33
2019-02-19T06:47:06.640Z,20.13
2019-02-19T06:49:27.084Z,18.97
2019-02-19T06:51:52.924Z,18.90
2019-02-19T06:54:18.766Z,19.23
2019-02-19T06:56:44.597Z,19.47
2019-02-19T06:59:10.604Z,18.47
2019-02-19T07:01:56.472Z,19.13
2019-02-19T07:04:24.266Z,18.60
2019-02-19T07:06:50.323Z,18.20
2019-02-19T07:09:16.308Z,16.10
2019-02-19T07:11:42.130Z,17.03
2019-02-19T07:14:07.991Z,17.50
2019-02-19T07:16:33.820Z,17.57
2019-02-19T07:18:59.786Z,17.50
2019-02-19T07:21:25.623Z,17.27
2019-02-19T07:23:51.475Z,16.80
2019-02-19T07:26:17.293Z,18.60
2019-02-19T07:28:43.142Z,17.80
2019-02-19T07:31:08.984Z,17.30
2019-02-19T07:33:34.817Z,17.17
2019-02-19T07:36:00.653Z,16.87
2019-02-19T07:38:26.516Z,18.13
2019-02-19T07:40:52.417Z,17.13
2019-02-19T07:43:18.397Z,16.93
2019-02-19T07:45:44.238Z,17.97
2019-02-19T07:48:10.084Z,16.33
2019-02-19T07:50:35.946Z,16.47
2019-02-19T07:53:01.753Z,17.60
2019-02-19T07:55:27.620Z,15.93
2019-02-19T07:57:53.439Z,16.13
2019-02-19T08:00:19.287Z,15.97
2019-02-19T08:02:45.096Z,16.83
2019-02-19T08:05:10.973Z,15.90
2019-02-19T08:07:36.934Z,16.07
2019-02-19T08:10:08.751Z,17.33
2019-02-19T08:12:34.617Z,16.10
2019-02-19T08:15:00.486Z,16.87
2019-02-19T08:17:33.022Z,15.57
2019-02-19T08:19:54.211Z,15.97
2019-02-19T08:22:20.082Z,15.63
2019-02-19T08:24:45.902Z,15.77
2019-02-19T08:27:11.756Z,15.27
2019-02-19T08:29:37.594Z,15.90
2019-02-19T08:32:03.561Z,16.57
2019-02-19T08:34:29.386Z,16.53
2019-02-19T08:36:55.410Z,14.40
2019-02-19T08:39:21.221Z,14.53
2019-02-19T08:41:47.169Z,14.60
2019-02-19T08:44:13.010Z,14.73
2019-02-19T08:46:38.959Z,14.40
2019-02-19T08:49:04.889Z,14.87
2019-02-19T08:51:30.840Z,15.33
2019-02-19T08:53:56.816Z,14.57
2019-02-19T08:56:22.643Z,13.63
2019-02-19T08:58:48.592Z,14.13
2019-02-19T09:01:14.416Z,13.90
2019-02-19T09:03:40.256Z,14.23
2019-02-19T09:06:06.161Z,13.97
2019-02-19T09:08:32.025Z,14.17
2019-02-19T09:10:57.844Z,13.10
2019-02-19T09:13:23.689Z,12.97
2019-02-19T09:15:49.521Z,12.00
2019-02-19T09:18:15.377Z,12.47
2019-02-19T09:20:41.229Z,13.17
2019-02-19T09:23:07.591Z,13.00
2019-02-19T09:25:33.423Z,13.27
2019-02-19T09:27:59.432Z,12.13
2019-02-19T09:30:25.253Z,12.13
2019-02-19T09:32:51.114Z,12.03
2019-02-19T09:35:17.039Z,11.90
2019-02-19T09:37:42.851Z,11.80
2019-02-19T09:40:09.315Z,11.87
2019-02-19T09:42:35.146Z,11.13
2019-02-19T09:45:01.108Z,11.23
2019-02-19T09:47:26.945Z,10.83
2019-02-19T09:49:52.915Z,9.87
2019-02-19T09:52:18.723Z,11.03
2019-02-19T09:54:44.588Z,9.97
2019-02-19T09:57:10.410Z,8.50
2019-02-19T09:59:36.263Z,8.67
2019-02-19T10:02:02.193Z,8.40
2019-02-19T10:04:28.069Z,8.17
2019-02-19T10:06:53.904Z,8.87
2019-02-19T10:09:19.746Z,8.60
2019-02-19T10:11:45.692Z,7.90
2019-02-19T10:14:11.560Z,6.70
2019-02-19T10:16:41.522Z,6.60
2019-02-19T10:19:05.095Z,6.30
2019-02-19T10:21:30.959Z,6.17
2019-02-19T10:23:56.795Z,7.17
2019-02-19T10:26:22.658Z,5.63
2019-02-19T10:28:48.484Z,5.10
2019-02-19T10:31:14.447Z,5.42
2019-02-19T10:33:40.377Z,5.67
2019-02-19T10:36:06.321Z,5.72
2019-02-19T10:38:32.140Z,5.40
2019-02-19T10:40:58.069Z,5.62
2019-02-19T10:43:23.895Z,5.58
2019-02-19T10:45:49.736Z,5.72
2019-02-19T10:48:19.014Z,5.58
2019-02-19T10:50:43.355Z,5.90
2019-02-19T10:53:09.165Z,5.62
2019-02-19T10:55:35.031Z,5.55
2019-02-19T10:58:00.965Z,5.10
2019-02-19T11:00:26.962Z,5.00
2019-02-19T11:02:52.790Z,5.42
2019-02-19T11:05:19.410Z,5.47
2019-02-19T11:07:45.297Z,5.40
2019-02-19T11:10:13.483Z,5.17
2019-02-19T11:12:39.815Z,5.55
2019-02-19T11:15:13.402Z,5.25
2019-02-19T11:17:39.292Z,4.65
2019-02-19T11:20:16.972Z,4.62
2019-02-19T11:22:42.941Z,4.80
2019-02-19T11:25:10.681Z,4.67
2019-02-19T11:27:36.540Z,5.37
2019-02-19T11:30:05.567Z,4.87
2019-02-19T11:32:31.420Z,4.87
2019-02-19T11:35:05.561Z,4.55
2019-02-19T11:37:31.741Z,5.37
2019-02-19T11:39:57.565Z,4.90
2019-02-19T11:42:23.446Z,4.62
2019-02-19T11:44:49.300Z,4.50
2019-02-19T11:47:15.140Z,4.83
2019-02-19T11:49:40.986Z,4.70
2019-02-19T11:52:06.935Z,4.85
2019-02-19T11:54:32.799Z,4.67
2019-02-19T11:56:58.862Z,5.33
2019-02-19T11:59:24.737Z,4.50
2019-02-19T12:01:51.086Z,4.22
2019-02-19T12:04:17.620Z,3.98
2019-02-19T12:06:43.447Z,4.75
2019-02-19T12:09:09.294Z,4.78
2019-02-19T12:11:35.122Z,4.80
2019-02-19T12:14:06.233Z,4.78
2019-02-19T12:16:32.109Z,4.65
2019-02-19T12:18:57.974Z,4.17
2019-02-19T12:21:23.860Z,4.42
2019-02-19T12:23:49.734Z,4.40
2019-02-19T12:26:15.566Z,4.40
2019-02-19T12:28:41.400Z,4.72
2019-02-19T12:31:07.361Z,4.92
2019-02-19T12:33:33.193Z,4.72
2019-02-19T12:35:59.045Z,5.17
2019-02-19T12:38:24.922Z,4.53
2019-02-19T12:40:50.867Z,4.55
2019-02-19T12:43:16.726Z,4.12
2019-02-19T12:45:42.584Z,4.50
2019-02-19T12:48:08.512Z,4.50
2019-02-19T12:50:34.374Z,4.62
2019-02-19T12:53:00.204Z,4.83
2019-02-19T12:55:26.045Z,4.65
2019-02-19T12:57:51.881Z,4.62
2019-02-19T13:00:18.237Z,4.90
2019-02-19T13:02:44.290Z,4.53
2019-02-19T13:05:12.381Z,5.20
2019-02-19T13:07:38.227Z,4.85
2019-02-19T13:10:07.487Z,5.40
2019-02-19T13:12:33.451Z,4.42
2019-02-19T13:14:59.286Z,4.65
2019-02-19T13:17:25.149Z,4.15
2019-02-19T13:19:51.005Z,3.65
2019-02-19T13:22:16.844Z,4.20
2019-02-19T13:24:43.133Z,4.20
2019-02-19T13:27:09.191Z,4.42
2019-02-19T13:29:35.048Z,4.45
2019-02-19T13:32:01.229Z,4.00
2019-02-19T13:34:27.058Z,4.35
2019-02-19T13:36:52.910Z,4.00
2019-02-19T13:39:18.732Z,4.15
2019-02-19T13:41:44.619Z,4.15
2019-02-19T13:44:10.492Z,3.67
2019-02-19T13:46:36.976Z,3.72
2019-02-19T13:49:02.941Z,3.37
2019-02-19T13:51:28.768Z,3.65
2019-02-19T13:53:59.582Z,3.72
2019-02-19T13:56:25.432Z,2.95
2019-02-19T13:58:51.272Z,3.40
2019-02-19T14:01:17.103Z,3.30
2019-02-19T14:03:42.944Z,2.92
2019-02-19T14:06:08.792Z,3.20
2019-02-19T14:08:34.627Z,3.40
2019-02-19T14:11:00.463Z,3.45
2019-02-19T14:13:26.438Z,2.90
2019-02-19T14:15:56.883Z,2.65
2019-02-19T14:18:24.643Z,2.20
2019-02-19T14:21:10.565Z,2.20
2019-02-19T14:23:44.161Z,2.50
2019-02-19T14:26:12.001Z,2.50
2019-02-19T14:28:42.801Z,2.50
2019-02-19T14:31:13.531Z,2.80
2019-02-19T14:33:49.046Z,2.62
2019-02-19T14:36:13.779Z,2.70
2019-02-19T14:38:41.577Z,2.70
2019-02-19T14:41:09.452Z,2.70
2019-02-19T14:43:49.495Z,2.92
2019-02-19T14:46:33.805Z,3.00
2019-02-19T14:49:11.022Z,2.35
2019-02-19T14:51:38.758Z,2.70
2019-02-19T14:54:12.424Z,3.22
2019-02-19T14:56:57.188Z,2.90
2019-02-19T14:59:33.920Z,2.70
2019-02-19T15:02:01.642Z,2.67
2019-02-19T15:04:29.518Z,2.70
2019-02-19T15:06:57.282Z,2.80
2019-02-19T15:09:25.168Z,2.70
2019-02-19T15:12:11.123Z,2.58
2019-02-19T15:14:55.292Z,2.98
2019-02-19T15:17:32.262Z,2.80
2019-02-19T15:20:18.119Z,2.95
2019-02-19T15:23:02.684Z,2.80
2019-02-19T15:25:46.934Z,3.10
2019-02-19T15:28:17.428Z,3.05
2019-02-19T15:30:51.185Z,2.70
2019-02-19T15:33:28.213Z,3.15
2019-02-19T15:35:58.735Z,2.90
2019-02-19T15:38:29.470Z,2.70
2019-02-19T15:41:14.202Z,3.00
2019-02-19T15:43:50.869Z,3.50
2019-02-19T15:46:21.575Z,2.87
2019-02-19T15:49:04.600Z,3.02
2019-02-19T15:51:32.401Z,2.80
2019-02-19T15:54:03.211Z,2.50
2019-02-19T15:56:30.998Z,2.67
2019-02-19T15:59:04.513Z,2.90
2019-02-19T16:01:32.253Z,3.30
2019-02-19T16:04:00.131Z,3.00
2019-02-19T16:06:27.855Z,3.40
2019-02-19T16:09:07.586Z,3.50
2019-02-19T16:11:35.385Z,3.17
2019-02-19T16:14:16.716Z,3.23
2019-02-19T16:16:47.213Z,3.30
2019-02-19T16:19:30.238Z,3.00
2019-02-19T16:21:58.011Z,3.20
2019-02-19T16:24:28.898Z,3.60
2019-02-19T16:26:56.793Z,3.40
2019-02-19T16:29:27.381Z,3.37
2019-02-19T16:32:01.047Z,3.10
2019-02-19T16:34:28.862Z,3.37
2019-02-19T16:36:59.463Z,3.40
2019-02-19T16:39:33.175Z,2.80
2019-02-19T16:42:04.419Z,3.47
2019-02-19T16:44:44.290Z,4.83
2019-02-19T16:47:27.077Z,4.93
2019-02-19T16:50:06.883Z,3.70
2019-02-19T16:52:42.731Z,3.93
2019-02-19T16:55:13.652Z,3.67
2019-02-19T16:57:56.688Z,4.07
2019-02-19T17:00:27.166Z,3.37
2019-02-19T17:02:55.050Z,3.40
2019-02-19T17:05:31.927Z,3.57
2019-02-19T17:07:59.691Z,4.00
2019-02-19T17:10:27.487Z,3.17
2019-02-19T17:13:10.512Z,3.40
2019-02-19T17:15:53.251Z,3.70
2019-02-19T17:18:26.861Z,3.70
2019-02-19T17:20:57.852Z,3.53
2019-02-19T17:23:29.854Z,3.50
2019-02-19T17:26:06.683Z,3.33
2019-02-19T17:28:34.417Z,3.53
2019-02-19T17:31:02.208Z,3.47
2019-02-19T17:33:32.720Z,4.23
2019-02-19T17:36:03.459Z,3.30
2019-02-19T17:38:33.961Z,3.40
2019-02-19T17:41:07.835Z,3.67
2019-02-19T17:43:41.777Z,3.73
2019-02-19T17:46:18.812Z,3.77
2019-02-19T17:48:46.551Z,4.60
2019-02-19T17:51:26.512Z,4.23
2019-02-19T17:53:54.487Z,3.93
2019-02-19T17:56:22.491Z,5.00
2019-02-19T17:58:50.365Z,6.07
2019-02-19T18:01:21.156Z,5.07
2019-02-19T18:03:49.079Z,4.87
2019-02-19T18:06:33.731Z,4.90
2019-02-19T18:09:01.535Z,4.70
2019-02-19T18:11:29.291Z,3.93
2019-02-19T18:14:00.145Z,4.20
2019-02-19T18:16:30.905Z,4.20
2019-02-19T18:18:56.866Z,5.90
2019-02-19T18:21:22.879Z,4.90
2019-02-19T18:23:49.079Z,4.37
2019-02-19T18:26:15.004Z,4.57
2019-02-19T18:28:41.056Z,4.17
2019-02-19T18:31:07.042Z,4.27
2019-02-19T18:33:33.173Z,4.13
2019-02-19T18:35:59.011Z,5.70
2019-02-19T18:38:27.495Z,3.97
2019-02-19T18:40:53.349Z,4.13
2019-02-19T18:43:19.369Z,5.03
2019-02-19T18:45:45.335Z,8.40
2019-02-19T18:48:14.230Z,12.17
2019-02-19T18:50:40.181Z,9.10
2019-02-19T18:53:06.194Z,6.90
2019-02-19T18:55:32.149Z,5.90
2019-02-19T18:58:01.025Z,5.43
2019-02-19T19:00:27.100Z,5.87
2019-02-19T19:02:52.925Z,6.10
2019-02-19T19:05:18.777Z,6.80
2019-02-19T19:07:44.793Z,7.30
2019-02-19T19:10:11.639Z,6.80
2019-02-19T19:12:37.691Z,8.37
2019-02-19T19:15:06.910Z,8.50
2019-02-19T19:17:32.767Z,8.07
2019-02-19T19:19:59.001Z,5.63
2019-02-19T19:22:25.020Z,6.23
2019-02-19T19:24:50.953Z,5.87
2019-02-19T19:27:16.854Z,7.20
2019-02-19T19:29:42.715Z,5.83
2019-02-19T19:32:08.582Z,5.20
2019-02-19T19:34:34.656Z,4.97
2019-02-19T19:37:00.523Z,5.67
2019-02-19T19:39:26.511Z,5.03
2019-02-19T19:41:52.559Z,5.70
2019-02-19T19:44:18.670Z,6.30
2019-02-19T19:46:44.662Z,7.43
2019-02-19T19:49:10.610Z,8.23
2019-02-19T19:51:36.496Z,7.30
2019-02-19T19:54:02.572Z,7.37
2019-02-19T19:56:28.442Z,10.27
2019-02-19T19:58:54.505Z,7.60
2019-02-19T20:01:20.655Z,7.90
2019-02-19T20:03:46.608Z,7.80
2019-02-19T20:06:12.557Z,8.23
2019-02-19T20:08:38.424Z,8.13
2019-02-19T20:11:04.457Z,7.93
2019-02-19T20:13:30.318Z,9.27
2019-02-19T20:15:56.248Z,8.90
2019-02-19T20:18:22.120Z,9.10
2019-02-19T20:20:48.038Z,9.20
2019-02-19T20:23:13.923Z,9.60
2019-02-19T20:25:39.768Z,9.50
2019-02-19T20:28:07.167Z,10.90
2019-02-19T20:30:33.120Z,10.50
2019-02-19T20:32:59.124Z,11.73
2019-02-19T20:35:24.985Z,9.93
2019-02-19T20:37:53.926Z,10.57
2019-02-19T20:40:18.929Z,11.80
2019-02-19T20:42:44.794Z,10.80
2019-02-19T20:45:12.134Z,10.67
2019-02-19T20:47:38.079Z,10.53
2019-02-19T20:50:09.281Z,10.87
2019-02-19T20:52:35.281Z,10.77
2019-02-19T20:55:01.280Z,10.60
2019-02-19T20:57:27.479Z,10.37
2019-02-19T20:59:53.486Z,10.20
2019-02-19T21:02:19.443Z,9.20
2019-02-19T21:04:45.388Z,8.73
2019-02-19T21:07:11.228Z,8.30
2019-02-19T21:09:43.456Z,8.47
2019-02-19T21:12:04.889Z,8.80
2019-02-19T21:14:30.758Z,8.50
2019-02-19T21:16:56.722Z,8.00
2019-02-19T21:19:23.053Z,7.70
2019-02-19T21:21:48.916Z,7.87
2019-02-19T21:24:14.777Z,7.93
2019-02-19T21:26:40.793Z,8.80
2019-02-19T21:29:06.626Z,7.70
2019-02-19T21:31:32.569Z,8.20
2019-02-19T21:34:00.166Z,9.07
2019-02-19T21:36:26.011Z,7.97
2019-02-19T21:38:52.511Z,8.20
2019-02-19T21:41:18.951Z,8.37
2019-02-19T21:43:44.955Z,8.73
2019-02-19T21:46:10.886Z,8.13
2019-02-19T21:48:36.867Z,8.67
2019-02-19T21:51:02.855Z,7.80
2019-02-19T21:53:28.733Z,8.43
2019-02-19T21:55:54.734Z,9.20
2019-02-19T21:58:20.704Z,8.90
2019-02-19T22:00:46.608Z,9.00
2019-02-19T22:03:12.536Z,8.80
2019-02-19T22:05:38.454Z,9.33
2019-02-19T22:08:04.293Z,9.30
2019-02-19T22:10:30.177Z,9.23
2019-02-19T22:12:56.036Z,9.00
2019-02-19T22:15:21.927Z,9.00
2019-02-19T22:17:47.926Z,9.53
2019-02-19T22:20:23.478Z,8.27
2019-02-19T22:22:49.610Z,9.50
2019-02-19T22:25:15.601Z,9.73
2019-02-19T22:27:41.475Z,9.67
2019-02-19T22:30:07.845Z,8.83
2019-02-19T22:32:33.717Z,9.20
2019-02-19T22:34:59.579Z,8.93
2019-02-19T22:37:25.435Z,9.73
2019-02-19T22:39:51.258Z,8.97
2019-02-19T22:42:17.224Z,9.37
2019-02-19T22:44:43.151Z,9.47
2019-02-19T22:47:09.030Z,10.10
2019-02-19T22:49:34.860Z,14.10
2019-02-19T22:52:00.747Z,14.83
2019-02-19T22:54:28.476Z,13.30
2019-02-19T22:56:54.479Z,11.90
2019-02-19T22:59:20.520Z,12.00
2019-02-19T23:01:48.518Z,11.33
2019-02-19T23:04:14.383Z,11.43
2019-02-19T23:06:40.222Z,11.10
2019-02-19T23:09:06.174Z,10.80
2019-02-19T23:11:32.469Z,10.37
2019-02-19T23:13:58.325Z,11.00
2019-02-19T23:16:24.148Z,9.90
2019-02-19T23:18:50.024Z,9.33
2019-02-19T23:21:15.874Z,9.63
2019-02-19T23:23:42.020Z,10.10
2019-02-19T23:26:07.990Z,9.33
2019-02-19T23:28:33.836Z,10.00
2019-02-19T23:30:59.680Z,9.60
2019-02-19T23:33:25.510Z,9.50
2019-02-19T23:36:02.476Z,10.10
2019-02-19T23:38:28.329Z,9.80
2019-02-19T23:40:54.191Z,10.37
2019-02-19T23:43:20.019Z,9.93
2019-02-19T23:45:45.943Z,9.83
2019-02-19T23:48:11.892Z,10.20
2019-02-19T23:50:37.740Z,9.77
2019-02-19T23:53:03.664Z,10.43
2019-02-19T23:55:29.743Z,9.70
2019-02-19T23:57:55.677Z,10.37
